Time;durP1;ratioP1;P1;durP2;ratioP2;P2;SDS_P1;SDS_P2;PMS_P1;PMS_P2;Temp;Humidity;BMP_temperature;BMP_pressure;BME280_temperature;BME280_humidity;BME280_pressure;Samples;Min_cycle;Max_cycle;Signal;HPM_P1;HPM_P2
2022/03/15 00:09:20;;;;;;;;;;;6.10;99.90;;;;;;20659111;28;20551;-73
2022/03/15 00:19:23;;;;;;;5.63;3.00;;;5.80;99.90;;;;;;20658504;28;19917;-74
2022/03/15 00:29:24;;;;;;;10.27;3.63;;;6.00;99.90;;;;;;20674258;28;20473;-73
2022/03/15 00:39:25;;;;;;;8.37;3.10;;;5.80;99.90;;;;;;20673881;28;20026;-73
2022/03/15 00:49:26;;;;;;;5.37;2.77;;;5.70;99.90;;;;;;20672874;28;20030;-73
2022/03/15 00:59:27;;;;;;;5.13;2.78;;;5.50;99.90;;;;;;20654819;28;20045;-73
2022/03/15 01:09:28;;;;;;;6.33;2.63;;;5.60;99.90;;;;;;20671607;28;20113;-73
2022/03/15 01:19:29;;;;;;;8.13;2.80;;;5.80;99.90;;;;;;20670837;28;20105;-73
2022/03/15 01:29:30;;;;;;;10.00;2.87;;;5.90;99.90;;;;;;20669943;28;20053;-73
2022/03/15 01:39:31;;;;;;;7.80;2.57;;;6.00;99.90;;;;;;20669229;28;20022;-73
2022/03/15 01:49:32;;;;;;;5.97;2.90;;;6.00;99.90;;;;;;20668504;28;20035;-73
2022/03/15 01:59:33;;;;;;;9.17;2.90;;;5.90;99.90;;;;;;20667186;28;20405;-73
2022/03/15 02:09:34;;;;;;;;;;;5.90;99.90;;;;;;20649750;28;20035;-73
2022/03/15 02:19:37;;;;;;;10.50;2.57;;;6.10;99.90;;;;;;20648706;28;19968;-73
2022/03/15 02:29:38;;;;;;;8.38;2.85;;;6.00;99.90;;;;;;20665161;28;20297;-74
2022/03/15 02:39:38;;;;;;;5.83;2.60;;;6.00;99.90;;;;;;20664867;28;20057;-73
2022/03/15 02:49:39;;;;;;;9.70;3.20;;;6.20;99.90;;;;;;20664074;28;20115;-73
2022/03/15 02:59:40;;;;;;;5.17;2.97;;;6.30;99.90;;;;;;20732694;23;20412;-77
2022/03/15 03:09:41;;;;;;;10.20;3.13;;;6.40;99.90;;;;;;20715841;28;20094;-77
2022/03/15 03:19:42;;;;;;;5.63;3.57;;;6.40;99.90;;;;;;20690286;28;20071;-78
2022/03/15 03:29:43;;;;;;;8.63;3.90;;;6.40;99.90;;;;;;20692345;28;20432;-77
2022/03/15 03:39:44;;;;;;;7.33;3.03;;;6.30;99.90;;;;;;20681853;28;20030;-77
2022/03/15 03:49:45;;;;;;;9.85;3.60;;;6.20;99.90;;;;;;20681400;28;20042;-77
2022/03/15 03:59:46;;;;;;;9.43;4.37;;;6.20;99.90;;;;;;20663120;28;20451;-77
2022/03/15 04:09:47;;;;;;;8.27;3.90;;;6.10;99.90;;;;;;20677946;28;20038;-77
2022/03/15 04:19:48;;;;;;;8.25;4.15;;;6.00;99.90;;;;;;20678189;28;20030;-77
2022/03/15 04:29:49;;;;;;;7.20;4.13;;;5.60;99.90;;;;;;20688632;28;20038;-77
2022/03/15 04:39:50;;;;;;;9.17;3.93;;;5.70;99.90;;;;;;20687457;28;20129;-77
2022/03/15 04:49:51;;;;;;;8.85;4.03;;;5.90;99.90;;;;;;20685261;28;20057;-76
2022/03/15 04:59:52;;;;;;;9.13;4.70;;;5.90;99.90;;;;;;20689292;28;20507;-78
2022/03/15 05:20:14;;;;;;;12.23;4.63;;;6.00;99.90;;;;;;20693713;28;20050;-78
2022/03/15 05:30:17;;;;;;;12.32;4.63;;;6.00;99.90;;;;;;20684665;28;20037;-78
2022/03/15 05:40:18;;;;;;;9.48;5.10;;;5.90;99.90;;;;;;20700848;28;20085;-77
2022/03/15 05:50:19;;;;;;;9.67;5.10;;;5.80;99.90;;;;;;20701706;28;20038;-78
2022/03/15 06:00:20;;;;;;;11.93;5.03;;;5.90;99.90;;;;;;20683684;28;20038;-78
2022/03/15 06:10:23;;;;;;;13.88;4.95;;;5.80;99.90;;;;;;20682908;28;20094;-77
2022/03/15 06:20:25;;;;;;;10.30;5.45;;;5.80;99.90;;;;;;20681032;28;20064;-77
2022/03/15 06:30:26;;;;;;;8.07;5.55;;;5.70;99.90;;;;;;20734281;28;20112;-77
2022/03/15 06:40:29;;;;;;;14.48;6.55;;;5.90;99.90;;;;;;20744885;28;20056;-77
2022/03/15 06:50:30;;;;;;;14.23;7.47;;;5.80;99.90;;;;;;20747550;28;20045;-77
2022/03/15 07:00:30;;;;;;;15.30;7.00;;;5.70;99.90;;;;;;20726069;28;20041;-77
2022/03/15 07:10:31;;;;;;;15.83;8.93;;;5.60;99.90;;;;;;20744005;28;20041;-77
2022/03/15 07:20:32;;;;;;;17.43;7.57;;;5.50;99.90;;;;;;20732926;28;20034;-78
2022/03/15 07:30:33;;;;;;;14.77;7.15;;;5.40;99.90;;;;;;20708092;28;20616;-77
2022/03/15 07:40:34;;;;;;;17.20;9.82;;;5.30;99.90;;;;;;20756894;28;20500;-78
2022/03/15 07:50:35;;;;;;;20.10;9.95;;;5.30;99.90;;;;;;20789171;28;20037;-76
2022/03/15 08:00:36;;;;;;;22.90;11.10;;;5.40;99.90;;;;;;20760544;28;20064;-77
2022/03/15 08:10:37;;;;;;;;;;;5.40;99.90;;;;;;20772101;28;20572;-77
2022/03/15 08:20:40;;;;;;;23.35;13.00;;;5.50;99.90;;;;;;20735828;28;19920;-77
2022/03/15 08:30:41;;;;;;;29.77;14.63;;;5.40;99.90;;;;;;20735305;28;20373;-77
2022/03/15 08:40:42;;;;;;;30.08;15.50;;;5.50;99.90;;;;;;20735229;28;20030;-77
2022/03/15 08:50:43;;;;;;;35.53;16.83;;;5.50;99.90;;;;;;20734474;28;20045;-76
2022/03/15 09:00:44;;;;;;;36.97;19.85;;;5.60;99.90;;;;;;20778733;23;20064;-75
2022/03/15 09:10:45;;;;;;;43.47;22.30;;;5.60;99.90;;;;;;20788363;28;20034;-74
2022/03/15 09:20:47;;;;;;;39.40;20.70;;;5.70;99.90;;;;;;20732464;28;21085;-74
2022/03/15 09:30:47;;;;;;;;;;;5.90;99.90;;;;;;20730834;28;20424;-75
2022/03/15 09:40:53;;;;;;;40.65;21.35;;;6.00;99.90;;;;;;20731683;28;20393;-75
2022/03/15 09:50:54;;;;;;;34.17;18.38;;;6.10;99.90;;;;;;20729827;28;20038;-75
2022/03/15 10:00:57;;;;;;;32.15;18.73;;;6.20;99.90;;;;;;20728236;28;20048;-75
2022/03/15 10:10:59;;;;;;;38.75;17.23;;;6.30;99.90;;;;;;20728142;28;20033;-74
2022/03/15 10:21:04;;;;;;;34.88;17.55;;;6.30;99.90;;;;;;20726858;28;20037;-74
2022/03/15 10:31:07;;;;;;;36.60;17.17;;;6.50;99.90;;;;;;20726139;28;20504;-75
2022/03/15 10:41:14;;;;;;;34.55;16.27;;;6.60;99.90;;;;;;20726020;28;20038;-74
2022/03/15 10:51:15;;;;;;;31.65;15.40;;;6.60;99.90;;;;;;20726177;28;20489;-75
2022/03/15 11:01:18;;;;;;;30.53;16.47;;;6.80;99.90;;;;;;20726949;28;20033;-75
2022/03/15 11:11:26;;;;;;;33.33;16.02;;;6.80;99.90;;;;;;20725274;28;20029;-75
2022/03/15 11:21:27;;;;;;;31.27;16.05;;;7.10;99.90;;;;;;20723568;28;20034;-74
2022/03/15 11:31:30;;;;;;;30.63;14.88;;;7.30;99.90;;;;;;20731080;28;20624;-75
2022/03/15 11:41:33;;;;;;;29.20;15.10;;;7.40;99.90;;;;;;20722110;28;20527;-75
2022/03/15 11:52:10;;;;;;;23.27;12.85;;;7.70;99.90;;;;;;20739388;28;20037;-75
2022/03/15 12:02:11;;;;;;;21.25;12.82;;;7.90;99.90;;;;;;20742137;28;20526;-75
2022/03/15 12:12:12;;;;;;;26.20;13.77;;;8.00;99.90;;;;;;20745678;28;20060;-75
2022/03/15 12:22:27;;;;;;;24.20;13.60;;;7.80;99.90;;;;;;20755940;28;20032;-75
2022/03/15 12:32:29;;;;;;;27.52;16.00;;;7.70;99.90;;;;;;20755749;28;20022;-75
2022/03/15 12:42:31;;;;;;;27.75;15.55;;;7.70;99.90;;;;;;20754489;28;20060;-75
2022/03/15 12:52:49;;;;;;;27.02;14.75;;;7.60;99.90;;;;;;20753987;28;20076;-75
2022/03/15 13:02:55;;;;;;;27.77;14.35;;;7.80;99.90;;;;;;20751748;28;20420;-75
2022/03/15 13:12:56;;;;;;;26.27;14.80;;;7.80;99.90;;;;;;20735481;28;20038;-75
2022/03/15 13:23:03;;;;;;;26.60;15.55;;;7.90;99.90;;;;;;20750739;28;20029;-75
2022/03/15 13:33:04;;;;;;;27.83;15.73;;;7.90;99.90;;;;;;20751103;28;20666;-74
2022/03/15 13:43:05;;;;;;;26.60;15.77;;;7.90;99.90;;;;;;20749899;28;20030;-74
2022/03/15 13:53:18;;;;;;;26.45;14.93;;;7.80;99.90;;;;;;20746722;28;20038;-74
2022/03/15 14:03:29;;;;;;;30.63;16.70;;;7.60;99.90;;;;;;20748020;28;20221;-75
2022/03/15 14:13:30;;;;;;;36.57;19.50;;;7.50;99.90;;;;;;20747490;28;20040;-74
2022/03/15 14:23:31;;;;;;;29.90;16.87;;;7.40;99.90;;;;;;20746679;28;20120;-74
2022/03/15 14:33:32;;;;;;;27.47;15.20;;;7.50;99.90;;;;;;20746046;28;20040;-74
2022/03/15 14:43:35;;;;;;;29.50;15.33;;;7.40;99.90;;;;;;20745635;28;20033;-74
2022/03/15 14:53:37;;;;;;;31.23;15.95;;;7.50;99.90;;;;;;20760225;28;20041;-75
2022/03/15 15:03:38;;;;;;;44.72;16.23;;;7.40;99.90;;;;;;20829054;23;20046;-75
2022/03/15 15:13:40;;;;;;;22.38;13.35;;;7.40;99.90;;;;;;20825472;28;20073;-76
2022/03/15 15:23:42;;;;;;;23.58;11.73;;;7.40;99.90;;;;;;20807324;28;20484;-76
2022/03/15 15:33:44;;;;;;;23.17;12.63;;;7.50;99.90;;;;;;20824537;28;20124;-77
2022/03/15 15:43:45;;;;;;;65.18;19.73;;;7.60;99.90;;;;;;20806275;28;20037;-77
2022/03/15 15:53:47;;;;;;;35.85;12.85;;;7.50;99.90;;;;;;20823723;28;20639;-77
2022/03/15 16:03:52;;;;;;;28.20;11.75;;;7.60;99.90;;;;;;20805709;28;20045;-77
2022/03/15 16:13:53;;;;;;;35.88;15.65;;;7.70;99.90;;;;;;20823098;28;20087;-77
2022/03/15 16:23:55;;;;;;;28.57;13.67;;;7.60;99.90;;;;;;20836959;28;20027;-76
2022/03/15 16:33:57;;;;;;;;;;;7.60;99.90;;;;;;20837543;28;20051;-77
2022/03/15 16:43:58;;;;;;;39.15;13.80;;;7.50;99.90;;;;;;20836594;28;20010;-76
2022/03/15 16:53:59;;;;;;;42.33;13.00;;;7.40;99.90;;;;;;20835967;28;20033;-77
2022/03/15 17:14:27;;;;;;;29.07;10.23;;;7.40;99.90;;;;;;20803627;28;20091;-76
2022/03/15 17:24:32;;;;;;;48.20;12.60;;;7.40;99.90;;;;;;20816565;28;20033;-76
2022/03/15 17:34:38;;;;;;;43.83;14.68;;;7.40;99.90;;;;;;20831417;28;20403;-77
2022/03/15 17:44:47;;;;;;;48.40;14.60;;;7.10;99.90;;;;;;20831503;28;20041;-76
2022/03/15 17:54:49;;;;;;;42.38;13.38;;;7.00;99.90;;;;;;20831734;28;20116;-76
2022/03/15 18:05:04;;;;;;;45.08;14.70;;;7.20;99.90;;;;;;20827609;28;20389;-76
2022/03/15 18:15:05;;;;;;;45.05;17.95;;;7.20;99.90;;;;;;20812100;28;20038;-76
2022/03/15 18:25:06;;;;;;;48.17;17.58;;;7.30;99.90;;;;;;20828721;28;20049;-76
2022/03/15 18:35:11;;;;;;;35.47;13.90;;;7.30;99.90;;;;;;20827653;28;20033;-76
2022/03/15 18:45:12;;;;;;;30.77;14.65;;;6.90;99.90;;;;;;20809651;28;20029;-76
2022/03/15 18:55:13;;;;;;;36.65;14.00;;;6.70;99.90;;;;;;20808954;28;20380;-77
2022/03/15 19:05:14;;;;;;;47.33;19.50;;;6.60;99.90;;;;;;20805038;28;20057;-78
2022/03/15 19:15:16;;;;;;;37.70;15.87;;;6.60;99.90;;;;;;20782006;28;20049;-78
2022/03/15 19:25:17;;;;;;;25.30;14.43;;;6.50;99.90;;;;;;20751478;28;20036;-78
2022/03/15 19:35:18;;;;;;;27.23;13.48;;;6.50;99.90;;;;;;20729590;28;20044;-77
2022/03/15 19:45:20;;;;;;;26.77;13.45;;;6.40;99.90;;;;;;20725589;28;20036;-78
2022/03/15 19:55:21;;;;;;;44.55;15.45;;;6.20;99.90;;;;;;20734447;28;20124;-77
2022/03/15 20:05:21;;;;;;;34.20;15.82;;;6.20;99.90;;;;;;20758267;28;20492;-76
2022/03/15 20:15:29;;;;;;;47.47;19.17;;;6.10;99.90;;;;;;20757440;28;20590;-76
2022/03/15 20:25:30;;;;;;;49.22;19.38;;;6.10;99.90;;;;;;20722966;28;20061;-76
2022/03/15 20:35:32;;;;;;;35.13;17.20;;;6.20;99.90;;;;;;20755798;28;20037;-76
2022/03/15 20:45:36;;;;;;;43.85;18.90;;;6.10;99.90;;;;;;20737762;28;20084;-77
2022/03/15 20:55:43;;;;;;;48.47;19.20;;;6.20;99.90;;;;;;20737319;28;20029;-77
2022/03/15 21:05:45;;;;;;;43.42;18.70;;;6.20;99.90;;;;;;20729749;28;20113;-77
2022/03/15 21:15:48;;;;;;;44.17;17.08;;;6.20;99.90;;;;;;20777495;28;20030;-78
2022/03/15 21:25:49;;;;;;;41.65;17.60;;;6.00;99.90;;;;;;20752859;28;20038;-78
2022/03/15 21:35:50;;;;;;;45.80;19.10;;;6.00;99.90;;;;;;20754402;28;20435;-78
2022/03/15 21:45:51;;;;;;;44.63;19.02;;;5.90;99.90;;;;;;20744119;28;20040;-79
2022/03/15 21:55:53;;;;;;;41.87;20.43;;;6.00;99.90;;;;;;20799449;28;20413;-79
2022/03/15 22:05:55;;;;;;;46.50;21.23;;;6.00;99.90;;;;;;20779858;28;20041;-79
2022/03/15 22:15:56;;;;;;;47.42;20.52;;;5.90;99.90;;;;;;20790531;28;20037;-79
2022/03/15 22:26:00;;;;;;;51.00;23.70;;;5.80;99.90;;;;;;20759651;28;20096;-78
2022/03/15 23:27:19;;;;;;;47.40;20.73;;;5.70;99.90;;;;;;20779369;28;20037;-78
2022/03/15 23:37:20;;;;;;;45.13;20.25;;;5.70;99.90;;;;;;20705243;28;20109;-77
2022/03/15 23:47:21;;;;;;;54.80;22.65;;;5.50;99.90;;;;;;20733912;28;20492;-79
2022/03/15 23:57:22;;;;;;;47.50;20.77;;;5.20;99.90;;;;;;20714574;28;20369;-78
